Johannesburg, South Africa
Current Conditions -  °F | °C
As of 4:30 AM on Monday 22 Dec 2014 (Local Time) from FAOR Reporting Station
Clear Clear  
Wind Chill: 63°   Ceiling: Unl
Heat Index: 63°   Visibility: 6mi
Dew Point: 55°   Wind: 6mph
Humidity: 77%   Direction: 10°N
Pressure: 30.18"   Gusts: NA
Location:  26.19°S, 28.04°E
Report Text: FAOR 220230Z 01005KT CAVOK 17/13 Q1022 NOSIG
Loading
Personal Weather Stations






























Interactive Weather Map New forecast layout! Learn more

10-Day Weather Forecast

Advertisements
Track Severe Weather on mobile